Time;durP1;ratioP1;P1;durP2;ratioP2;P2;SDS_P1;SDS_P2;PMS_P1;PMS_P2;Temp;Humidity;BMP_temperature;BMP_pressure;BME280_temperature;BME280_humidity;BME280_pressure;Samples;Min_cycle;Max_cycle;Signal;HPM_P1;HPM_P2
2022/02/28 00:00:31;;;;;;;7.45;1.98;;;;;;;;;;4977469;28;20034;-73
2022/02/28 00:02:58;;;;;;;6.93;1.70;;;;;;;;;;4977453;28;20054;-70
2022/02/28 00:05:26;;;;;;;6.28;1.92;;;;;;;;;;4977696;28;20186;-74
2022/02/28 00:07:54;;;;;;;4.50;1.90;;;;;;;;;;4977337;28;20145;-73
2022/02/28 00:10:23;;;;;;;5.78;2.13;;;;;;;;;;4976769;28;20046;-73
2022/02/28 00:12:50;;;;;;;7.80;2.08;;;;;;;;;;4977147;28;20049;-69
2022/02/28 00:15:19;;;;;;;7.78;2.10;;;;;;;;;;4976921;28;20406;-69
2022/02/28 00:17:47;;;;;;;6.65;1.88;;;;;;;;;;4991891;28;20045;-74
2022/02/28 00:20:15;;;;;;;8.15;2.25;;;;;;;;;;4975399;28;20469;-69
2022/02/28 00:22:44;;;;;;;11.93;1.95;;;;;;;;;;4976800;28;20051;-69
2022/02/28 00:25:12;;;;;;;3.28;1.45;;;;;;;;;;4977152;28;20043;-69
2022/02/28 00:27:40;;;;;;;9.27;2.20;;;;;;;;;;4976836;28;20035;-69
2022/02/28 00:30:08;;;;;;;7.88;2.05;;;;;;;;;;4976580;28;20043;-70
2022/02/28 00:32:36;;;;;;;6.25;1.77;;;;;;;;;;4976661;28;20050;-69
2022/02/28 00:35:04;;;;;;;5.28;1.70;;;;;;;;;;4976515;28;20034;-69
2022/02/28 00:37:35;;;;;;;10.98;2.15;;;;;;;;;;4976851;28;20086;-73
2022/02/28 00:40:05;;;;;;;6.32;2.22;;;;;;;;;;4991744;28;20129;-69
2022/02/28 00:42:33;;;;;;;7.43;1.88;;;;;;;;;;4991485;28;20084;-72
2022/02/28 00:45:01;;;;;;;6.60;1.90;;;;;;;;;;4991335;28;20077;-69
2022/02/28 00:47:28;;;;;;;12.27;2.40;;;;;;;;;;4975976;28;20049;-70
2022/02/28 00:49:56;;;;;;;9.27;2.00;;;;;;;;;;4975176;28;20043;-69
2022/02/28 00:52:23;;;;;;;7.38;2.03;;;;;;;;;;4990802;28;20398;-69
2022/02/28 00:54:51;;;;;;;10.70;2.28;;;;;;;;;;4990880;28;20046;-69
2022/02/28 00:57:18;;;;;;;14.82;2.88;;;;;;;;;;4990676;28;20047;-73
2022/02/28 00:59:46;;;;;;;8.07;2.40;;;;;;;;;;4991158;28;20066;-73
2022/02/28 01:02:14;;;;;;;7.03;1.80;;;;;;;;;;4976569;28;20438;-70
2022/02/28 01:04:44;;;;;;;5.57;1.58;;;;;;;;;;4976446;28;20612;-69
2022/02/28 01:07:12;;;;;;;11.95;2.88;;;;;;;;;;4976048;28;20084;-69
2022/02/28 01:09:39;;;;;;;7.30;2.00;;;;;;;;;;4974810;28;20051;-73
2022/02/28 01:12:08;;;;;;;5.45;1.98;;;;;;;;;;4990723;28;20061;-69
2022/02/28 01:14:36;;;;;;;13.30;2.95;;;;;;;;;;4990972;28;20520;-69
2022/02/28 01:17:04;;;;;;;13.07;2.10;;;;;;;;;;4974635;28;20046;-74
2022/02/28 01:19:34;;;;;;;8.50;2.80;;;;;;;;;;4990813;28;20097;-72
2022/02/28 01:22:02;;;;;;;7.45;2.10;;;;;;;;;;4975703;28;20398;-69
2022/02/28 01:24:30;;;;;;;8.13;2.03;;;;;;;;;;4990991;28;20047;-73
2022/02/28 01:26:57;;;;;;;6.65;2.10;;;;;;;;;;4974437;28;20556;-73
2022/02/28 01:29:25;;;;;;;6.93;2.50;;;;;;;;;;4975793;28;20053;-73
2022/02/28 01:31:52;;;;;;;8.50;2.40;;;;;;;;;;4974211;28;20050;-73
2022/02/28 01:34:20;;;;;;;12.15;2.10;;;;;;;;;;4975392;28;20054;-69
2022/02/28 01:36:48;;;;;;;4.20;1.73;;;;;;;;;;4990648;28;20038;-69
2022/02/28 01:39:15;;;;;;;7.80;1.75;;;;;;;;;;4975530;28;20411;-69
2022/02/28 01:41:43;;;;;;;9.32;1.98;;;;;;;;;;4975897;28;20066;-69
2022/02/28 01:44:11;;;;;;;5.05;1.73;;;;;;;;;;4975783;28;20042;-69
2022/02/28 01:46:39;;;;;;;11.48;2.42;;;;;;;;;;4973909;28;20495;-73
2022/02/28 01:49:07;;;;;;;6.90;2.35;;;;;;;;;;4975605;28;20047;-73
2022/02/28 01:51:39;;;;;;;5.45;1.80;;;;;;;;;;4990146;28;20495;-69
2022/02/28 01:54:07;;;;;;;7.30;2.10;;;;;;;;;;4973905;28;20145;-73
2022/02/28 01:56:35;;;;;;;7.05;2.20;;;;;;;;;;4975541;28;20100;-72
2022/02/28 01:59:04;;;;;;;4.15;1.80;;;;;;;;;;4973820;28;20521;-69
2022/02/28 02:01:31;;;;;;;8.93;2.40;;;;;;;;;;4974262;28;20050;-70
2022/02/28 02:04:02;;;;;;;7.45;2.13;;;;;;;;;;4974093;28;20082;-73
2022/02/28 02:06:29;;;;;;;9.73;2.08;;;;;;;;;;4973792;28;20179;-69
2022/02/28 02:08:57;;;;;;;10.32;2.40;;;;;;;;;;4974021;28;20039;-73
2022/02/28 02:11:24;;;;;;;7.57;2.08;;;;;;;;;;4973184;28;20047;-73
2022/02/28 02:13:52;;;;;;;5.55;2.40;;;;;;;;;;4989801;28;20047;-73
2022/02/28 02:16:19;;;;;;;7.07;2.03;;;;;;;;;;4974154;28;20042;-73
2022/02/28 02:18:47;;;;;;;3.63;2.00;;;;;;;;;;4972684;28;20057;-73
2022/02/28 02:21:15;;;;;;;7.05;2.13;;;;;;;;;;4989442;28;20142;-73
2022/02/28 02:23:42;;;;;;;6.72;1.98;;;;;;;;;;4974587;28;20066;-69
2022/02/28 02:26:16;;;;;;;5.30;2.00;;;;;;;;;;4989629;28;20137;-69
2022/02/28 02:28:44;;;;;;;5.28;2.40;;;;;;;;;;4989216;28;20105;-70
2022/02/28 02:31:12;;;;;;;6.97;1.90;;;;;;;;;;4974731;28;20562;-69
2022/02/28 02:33:42;;;;;;;5.85;2.15;;;;;;;;;;4957264;28;20598;-69
2022/02/28 02:36:12;;;;;;;5.35;2.22;;;;;;;;;;4989091;28;20097;-73
2022/02/28 02:38:45;;;;;;;7.30;2.10;;;;;;;;;;4989410;28;20051;-69
2022/02/28 02:41:13;;;;;;;6.85;2.30;;;;;;;;;;4989557;28;20517;-69
2022/02/28 02:43:40;;;;;;;3.10;1.92;;;;;;;;;;4989639;28;20050;-73
2022/02/28 02:46:08;;;;;;;2.42;1.88;;;;;;;;;;4989004;28;20046;-73
2022/02/28 02:48:36;;;;;;;5.63;2.40;;;;;;;;;;4974126;28;20057;-73
2022/02/28 02:51:12;;;;;;;9.70;2.15;;;;;;;;;;4989101;28;20043;-69
2022/02/28 02:53:43;;;;;;;6.78;2.25;;;;;;;;;;4989064;28;20047;-73
2022/02/28 02:56:11;;;;;;;5.20;2.00;;;;;;;;;;4957054;28;20094;-69
2022/02/28 02:58:39;;;;;;;7.47;1.90;;;;;;;;;;4988807;28;20054;-69
2022/02/28 03:01:08;;;;;;;4.43;1.92;;;;;;;;;;4989331;28;20073;-73
2022/02/28 03:03:36;;;;;;;4.50;2.22;;;;;;;;;;4988889;28;20070;-72
2022/02/28 03:06:04;;;;;;;2.88;1.85;;;;;;;;;;4972962;28;20047;-69
2022/02/28 03:08:34;;;;;;;4.13;2.05;;;;;;;;;;4988571;28;20142;-70
2022/02/28 03:11:02;;;;;;;5.32;1.83;;;;;;;;;;4988597;28;20084;-69
2022/02/28 03:13:29;;;;;;;7.68;2.20;;;;;;;;;;4988637;28;20054;-69
2022/02/28 03:15:58;;;;;;;2.95;1.98;;;;;;;;;;4988804;28;20043;-69
2022/02/28 03:18:28;;;;;;;4.93;1.73;;;;;;;;;;4972884;28;20417;-73
2022/02/28 03:20:55;;;;;;;4.47;1.90;;;;;;;;;;4993138;28;20074;-73
2022/02/28 03:23:26;;;;;;;3.25;1.90;;;;;;;;;;4995142;28;20054;-69
2022/02/28 03:26:04;;;;;;;2.58;1.65;;;;;;;;;;4995270;28;20070;-69
2022/02/28 03:28:35;;;;;;;4.40;1.98;;;;;;;;;;4994868;28;20077;-73
2022/02/28 03:31:05;;;;;;;4.30;2.05;;;;;;;;;;4995034;28;20459;-73
2022/02/28 03:33:34;;;;;;;4.82;2.05;;;;;;;;;;4979105;28;20414;-69
2022/02/28 03:36:02;;;;;;;6.07;2.20;;;;;;;;;;4979852;28;20038;-69
2022/02/28 03:38:32;;;;;;;8.95;2.00;;;;;;;;;;4978949;28;20106;-73
2022/02/28 03:41:00;;;;;;;5.72;2.05;;;;;;;;;;4980488;28;20372;-73
2022/02/28 03:43:28;;;;;;;2.97;2.20;;;;;;;;;;4962766;28;20047;-69
2022/02/28 03:46:09;;;;;;;6.75;2.20;;;;;;;;;;4995145;28;20102;-72
2022/02/28 03:48:55;;;;;;;4.28;2.40;;;;;;;;;;4980164;28;20065;-69
2022/02/28 03:51:44;;;;;;;9.73;2.47;;;;;;;;;;4995093;28;20053;-72
2022/02/28 03:54:21;;;;;;;3.92;2.00;;;;;;;;;;4995106;28;20047;-69
2022/02/28 03:56:51;;;;;;;4.53;2.10;;;;;;;;;;4995159;28;20103;-73
2022/02/28 03:59:19;;;;;;;2.85;1.90;;;;;;;;;;4994929;28;20106;-73
2022/02/28 04:01:47;;;;;;;7.18;1.85;;;;;;;;;;4995220;28;20505;-73
2022/02/28 04:04:30;;;;;;;4.47;2.00;;;;;;;;;;4964844;28;20114;-70
2022/02/28 04:06:58;;;;;;;7.60;2.65;;;;;;;;;;4979765;28;20486;-69
2022/02/28 04:09:27;;;;;;;6.78;2.40;;;;;;;;;;4994847;28;20061;-73
2022/02/28 04:11:56;;;;;;;5.18;2.20;;;;;;;;;;4994305;28;20051;-69
2022/02/28 04:14:24;;;;;;;5.25;2.00;;;;;;;;;;4980077;28;20034;-69
2022/02/28 04:16:52;;;;;;;6.97;2.50;;;;;;;;;;4994784;28;20049;-69
2022/02/28 04:19:39;;;;;;;5.80;2.15;;;;;;;;;;4980114;28;20049;-69
2022/02/28 04:22:07;;;;;;;7.70;2.55;;;;;;;;;;4994601;28;20467;-69
2022/02/28 04:24:42;;;;;;;4.93;2.67;;;;;;;;;;4993772;28;20113;-73
2022/02/28 04:27:10;;;;;;;4.05;2.10;;;;;;;;;;4978115;28;20098;-73
2022/02/28 04:29:39;;;;;;;5.55;2.35;;;;;;;;;;4994445;28;20077;-69
2022/02/28 04:32:18;;;;;;;9.55;2.75;;;;;;;;;;4991706;28;20113;-69
2022/02/28 04:34:56;;;;;;;11.82;2.80;;;;;;;;;;4974983;28;20153;-73
2022/02/28 04:37:25;;;;;;;5.72;2.60;;;;;;;;;;4959745;28;20043;-73
2022/02/28 04:39:52;;;;;;;8.35;2.90;;;;;;;;;;4959215;28;20050;-73
2022/02/28 04:42:21;;;;;;;4.13;2.60;;;;;;;;;;4991890;28;20105;-69
2022/02/28 04:44:53;;;;;;;5.20;2.75;;;;;;;;;;4975297;28;20411;-73
2022/02/28 04:47:21;;;;;;;6.75;3.15;;;;;;;;;;4991015;28;20137;-69
2022/02/28 04:50:05;;;;;;;6.55;3.00;;;;;;;;;;4976500;28;20098;-73
2022/02/28 04:52:34;;;;;;;6.68;2.50;;;;;;;;;;4975282;28;20134;-69
2022/02/28 04:55:04;;;;;;;10.63;2.95;;;;;;;;;;4976259;28;20145;-73
2022/02/28 04:57:36;;;;;;;7.15;2.60;;;;;;;;;;4975211;28;20509;-69
2022/02/28 05:00:06;;;;;;;8.20;2.83;;;;;;;;;;4959359;28;20043;-69
2022/02/28 05:02:35;;;;;;;8.00;3.10;;;;;;;;;;4991166;28;20138;-69
2022/02/28 05:05:22;;;;;;;9.23;2.70;;;;;;;;;;4974736;28;20058;-73
2022/02/28 05:07:53;;;;;;;4.13;2.40;;;;;;;;;;4990855;28;20050;-69
2022/02/28 05:10:21;;;;;;;11.25;2.72;;;;;;;;;;4958483;28;20050;-73
2022/02/28 05:12:55;;;;;;;9.20;4.22;;;;;;;;;;4990974;28;20049;-73
2022/02/28 05:15:23;;;;;;;5.13;2.70;;;;;;;;;;4974831;28;20070;-69
2022/02/28 05:17:51;;;;;;;5.28;2.55;;;;;;;;;;4990888;28;20398;-69
2022/02/28 05:20:18;;;;;;;4.35;2.65;;;;;;;;;;4990808;28;20047;-72
2022/02/28 05:22:46;;;;;;;7.43;2.55;;;;;;;;;;4974193;28;20071;-73
2022/02/28 05:25:14;;;;;;;7.28;3.42;;;;;;;;;;4958331;28;20043;-73
2022/02/28 05:27:43;;;;;;;12.90;3.17;;;;;;;;;;4958250;28;20050;-69
2022/02/28 05:30:12;;;;;;;11.38;3.33;;;;;;;;;;4990869;28;20055;-68
2022/02/28 05:32:43;;;;;;;7.45;2.78;;;;;;;;;;4958922;28;20047;-72
2022/02/28 05:35:23;;;;;;;9.85;2.70;;;;;;;;;;4974104;28;20118;-71
2022/02/28 05:38:01;;;;;;;6.90;2.92;;;;;;;;;;4990438;28;20039;-69
2022/02/28 05:40:30;;;;;;;9.25;2.97;;;;;;;;;;4974208;28;20041;-69
2022/02/28 05:42:57;;;;;;;7.05;2.60;;;;;;;;;;4974844;28;20042;-72
2022/02/28 05:45:26;;;;;;;3.53;2.22;;;;;;;;;;4957558;28;20073;-69
2022/02/28 05:48:09;;;;;;;6.85;2.35;;;;;;;;;;4973572;28;20054;-72
2022/02/28 05:50:36;;;;;;;6.43;2.55;;;;;;;;;;4990149;28;20058;-72
2022/02/28 05:53:06;;;;;;;6.55;2.85;;;;;;;;;;4974090;28;20091;-72
2022/02/28 05:55:36;;;;;;;11.52;2.90;;;;;;;;;;4975091;28;20069;-69
2022/02/28 05:58:04;;;;;;;4.43;2.47;;;;;;;;;;4975067;28;20039;-72
2022/02/28 06:00:31;;;;;;;7.20;2.58;;;;;;;;;;4970680;28;20042;-69
2022/02/28 06:02:59;;;;;;;8.60;2.75;;;;;;;;;;4955772;28;20126;-73
2022/02/28 06:05:27;;;;;;;5.80;2.80;;;;;;;;;;4955945;28;20066;-69
2022/02/28 06:07:54;;;;;;;6.35;2.92;;;;;;;;;;4970400;28;20458;-69
2022/02/28 06:10:22;;;;;;;6.30;2.65;;;;;;;;;;4970401;28;20078;-70
2022/02/28 06:12:49;;;;;;;9.23;2.67;;;;;;;;;;4965595;28;20049;-73
2022/02/28 06:15:33;;;;;;;8.18;3.28;;;;;;;;;;4974694;28;20062;-69
2022/02/28 06:18:01;;;;;;;8.10;3.80;;;;;;;;;;4974537;28;20043;-69
2022/02/28 06:20:31;;;;;;;13.90;4.28;;;;;;;;;;4974342;28;20034;-72
2022/02/28 06:22:59;;;;;;;7.57;3.67;;;;;;;;;;4974448;28;20062;-74
2022/02/28 06:25:27;;;;;;;13.95;3.85;;;;;;;;;;4972771;28;20042;-70
2022/02/28 06:27:54;;;;;;;10.25;3.47;;;;;;;;;;4973235;28;20049;-69
2022/02/28 06:30:22;;;;;;;7.75;3.42;;;;;;;;;;4971824;28;20043;-69
2022/02/28 06:32:50;;;;;;;8.73;3.25;;;;;;;;;;4967756;28;20035;-69
2022/02/28 06:35:18;;;;;;;6.85;2.92;;;;;;;;;;4967245;28;20050;-69
2022/02/28 06:37:45;;;;;;;11.05;3.13;;;;;;;;;;4972690;28;20039;-69
2022/02/28 06:40:14;;;;;;;13.10;3.13;;;;;;;;;;4972169;28;20039;-69
2022/02/28 06:42:42;;;;;;;7.15;2.60;;;;;;;;;;4954004;28;20126;-68
2022/02/28 06:45:09;;;;;;;7.20;3.08;;;;;;;;;;4960937;28;20054;-72
2022/02/28 06:47:37;;;;;;;15.45;4.00;;;;;;;;;;4973832;28;20057;-72
2022/02/28 06:50:05;;;;;;;9.85;3.65;;;;;;;;;;4973361;28;20053;-69
2022/02/28 06:52:33;;;;;;;10.57;4.13;;;;;;;;;;4973234;28;20038;-69
2022/02/28 06:55:00;;;;;;;10.98;3.92;;;;;;;;;;4973425;28;20043;-70
2022/02/28 06:57:29;;;;;;;7.22;3.10;;;;;;;;;;4973690;28;20499;-69
2022/02/28 06:59:57;;;;;;;5.75;2.30;;;;;;;;;;4973555;28;20399;-72
2022/02/28 07:02:24;;;;;;;9.63;4.22;;;;;;;;;;4973913;28;20039;-72
2022/02/28 07:05:07;;;;;;;14.88;4.00;;;;;;;;;;4958424;28;20046;-69
2022/02/28 07:07:34;;;;;;;12.70;4.30;;;;;;;;;;4972353;28;20418;-72
2022/02/28 07:10:02;;;;;;;6.85;3.83;;;;;;;;;;4973433;28;20035;-71
2022/02/28 07:12:30;;;;;;;9.10;3.47;;;;;;;;;;4972050;28;20418;-73
2022/02/28 07:14:59;;;;;;;10.15;3.72;;;;;;;;;;4973715;28;20039;-72
2022/02/28 07:17:27;;;;;;;3.78;2.42;;;;;;;;;;4972522;28;20042;-71
2022/02/28 07:19:54;;;;;;;8.02;2.22;;;;;;;;;;4972784;28;20043;-68
2022/02/28 07:22:22;;;;;;;6.75;2.50;;;;;;;;;;5082697;23;20084;-72
2022/02/28 07:24:50;;;;;;;9.32;2.15;;;;;;;;;;5051826;28;20116;-70
2022/02/28 07:27:17;;;;;;;8.73;2.85;;;;;;;;;;5052057;28;20064;-69
2022/02/28 07:29:45;;;;;;;5.07;2.33;;;;;;;;;;5051764;28;20072;-70
2022/02/28 07:32:12;;;;;;;4.80;2.47;;;;;;;;;;5051877;28;20037;-70
2022/02/28 07:35:04;;;;;;;6.38;2.47;;;;;;;;;;5051548;28;20198;-72
2022/02/28 07:37:33;;;;;;;8.57;3.10;;;;;;;;;;5051858;28;20038;-72
2022/02/28 07:40:00;;;;;;;5.10;3.28;;;;;;;;;;5051962;28;20120;-72
2022/02/28 07:42:28;;;;;;;11.48;4.40;;;;;;;;;;5051711;28;20051;-72
2022/02/28 07:44:55;;;;;;;11.30;4.10;;;;;;;;;;5052005;28;20045;-69
2022/02/28 07:47:23;;;;;;;9.70;4.60;;;;;;;;;;5051498;28;20069;-69
2022/02/28 07:49:51;;;;;;;5.60;3.85;;;;;;;;;;5050247;28;20041;-69
2022/02/28 07:52:19;;;;;;;5.88;3.72;;;;;;;;;;5051623;28;20515;-72
2022/02/28 07:54:46;;;;;;;7.00;3.15;;;;;;;;;;5051583;28;20123;-69
2022/02/28 07:57:14;;;;;;;7.20;3.53;;;;;;;;;;5051729;28;20044;-71
2022/02/28 07:59:42;;;;;;;7.15;3.85;;;;;;;;;;5051235;28;20039;-72
2022/02/28 08:02:09;;;;;;;15.05;3.70;;;;;;;;;;5051408;28;20044;-69
2022/02/28 08:04:37;;;;;;;6.47;3.65;;;;;;;;;;5033755;28;20045;-72
2022/02/28 08:07:04;;;;;;;9.68;3.50;;;;;;;;;;5052920;28;20037;-68
2022/02/28 08:09:32;;;;;;;4.88;3.10;;;;;;;;;;5055504;28;20037;-69
2022/02/28 08:11:59;;;;;;;6.07;2.50;;;;;;;;;;5054879;28;20041;-71
2022/02/28 08:14:27;;;;;;;3.55;2.47;;;;;;;;;;5055074;28;20033;-69
2022/02/28 08:16:55;;;;;;;5.80;3.10;;;;;;;;;;5055270;28;20041;-69
2022/02/28 08:19:22;;;;;;;4.72;2.40;;;;;;;;;;5053985;28;20124;-69
2022/02/28 08:21:50;;;;;;;3.63;2.70;;;;;;;;;;5054860;28;20059;-69
2022/02/28 08:24:17;;;;;;;5.30;2.60;;;;;;;;;;5054501;28;20365;-69
2022/02/28 08:26:45;;;;;;;4.25;2.20;;;;;;;;;;5055669;28;20041;-70
2022/02/28 08:29:12;;;;;;;2.85;1.50;;;;;;;;;;5053536;28;20071;-69
2022/02/28 08:31:40;;;;;;;3.42;2.00;;;;;;;;;;5055054;28;20090;-69
2022/02/28 08:34:08;;;;;;;3.92;1.77;;;;;;;;;;5053639;28;20040;-71
2022/02/28 08:36:36;;;;;;;3.33;2.38;;;;;;;;;;5054505;28;20037;-72
2022/02/28 08:39:04;;;;;;;9.07;2.65;;;;;;;;;;5053734;28;20030;-72
2022/02/28 08:41:31;;;;;;;7.00;2.45;;;;;;;;;;5053513;28;20040;-70
2022/02/28 08:43:59;;;;;;;2.85;2.28;;;;;;;;;;5054791;28;20042;-72
2022/02/28 08:46:26;;;;;;;3.15;2.50;;;;;;;;;;5054458;28;20051;-69
2022/02/28 08:48:54;;;;;;;3.70;1.95;;;;;;;;;;5054282;28;20123;-72
2022/02/28 08:51:21;;;;;;;3.22;2.22;;;;;;;;;;5054518;28;20052;-70
2022/02/28 08:53:51;;;;;;;8.25;2.50;;;;;;;;;;5054406;28;20095;-72
2022/02/28 08:56:19;;;;;;;4.00;2.35;;;;;;;;;;5054346;28;20041;-72
2022/02/28 08:58:50;;;;;;;3.63;2.15;;;;;;;;;;5054431;28;20124;-72
2022/02/28 09:01:18;;;;;;;4.13;2.58;;;;;;;;;;5052802;28;20044;-72
2022/02/28 09:03:45;;;;;;;4.72;2.22;;;;;;;;;;5054289;28;20091;-69
2022/02/28 09:06:13;;;;;;;5.78;2.53;;;;;;;;;;5054165;28;20119;-69
2022/02/28 09:08:40;;;;;;;5.18;2.50;;;;;;;;;;5054197;28;20069;-71
2022/02/28 09:11:08;;;;;;;5.45;2.40;;;;;;;;;;5052398;28;20416;-72
2022/02/28 09:13:35;;;;;;;5.22;2.42;;;;;;;;;;5054032;28;20059;-72
2022/02/28 09:16:03;;;;;;;5.47;2.08;;;;;;;;;;5053728;28;20048;-70
2022/02/28 09:18:31;;;;;;;5.30;2.42;;;;;;;;;;5053700;28;20043;-72
2022/02/28 09:21:00;;;;;;;5.45;2.28;;;;;;;;;;5054025;28;20171;-69
2022/02/28 09:23:28;;;;;;;3.75;2.25;;;;;;;;;;5051860;28;20452;-69
2022/02/28 09:25:55;;;;;;;4.50;2.28;;;;;;;;;;5053860;28;20063;-71
2022/02/28 09:28:23;;;;;;;5.85;1.83;;;;;;;;;;5052096;28;20044;-72
2022/02/28 09:30:52;;;;;;;4.03;2.25;;;;;;;;;;5052579;28;20049;-69
2022/02/28 09:33:20;;;;;;;5.50;2.35;;;;;;;;;;5053559;28;20052;-72
2022/02/28 09:35:48;;;;;;;5.80;2.20;;;;;;;;;;5053521;28;20112;-70
2022/02/28 09:38:17;;;;;;;3.50;2.08;;;;;;;;;;5052185;28;20063;-69
2022/02/28 09:40:48;;;;;;;7.07;2.38;;;;;;;;;;5053735;28;20120;-71
2022/02/28 09:43:34;;;;;;;4.93;2.25;;;;;;;;;;5053576;28;20045;-68
2022/02/28 09:46:20;;;;;;;5.68;2.30;;;;;;;;;;5052421;28;20442;-71
2022/02/28 09:49:20;;;;;;;4.43;2.22;;;;;;;;;;5053273;28;20161;-69
2022/02/28 09:52:07;;;;;;;5.15;2.30;;;;;;;;;;5053212;28;20064;-71
2022/02/28 09:55:04;;;;;;;5.15;2.28;;;;;;;;;;5033740;28;20521;-71
2022/02/28 09:58:03;;;;;;;4.20;1.77;;;;;;;;;;5039211;28;20079;-70
2022/02/28 10:00:46;;;;;;;3.35;1.80;;;;;;;;;;5051758;28;20120;-70
2022/02/28 10:03:14;;;;;;;6.97;2.17;;;;;;;;;;5035263;28;20175;-68
2022/02/28 10:05:42;;;;;;;4.95;2.20;;;;;;;;;;5051857;28;20087;-68
2022/02/28 10:08:13;;;;;;;3.30;2.28;;;;;;;;;;5051985;28;20170;-71
2022/02/28 10:10:44;;;;;;;5.20;2.25;;;;;;;;;;5053045;28;20555;-68
2022/02/28 10:13:12;;;;;;;3.95;2.00;;;;;;;;;;5052659;28;20403;-71
2022/02/28 10:15:42;;;;;;;3.35;2.20;;;;;;;;;;5052979;28;20500;-71
2022/02/28 10:18:12;;;;;;;6.22;2.28;;;;;;;;;;5052762;28;20072;-71
2022/02/28 10:20:40;;;;;;;3.72;1.95;;;;;;;;;;5051340;28;20053;-71
2022/02/28 10:23:09;;;;;;;4.57;2.13;;;;;;;;;;5050959;28;20067;-68
2022/02/28 10:25:57;;;;;;;5.32;2.30;;;;;;;;;;5053160;28;20187;-68
2022/02/28 10:29:10;;;;;;;3.83;2.05;;;;;;;;;;5043416;28;20049;-71
2022/02/28 10:32:00;;;;;;;2.35;1.60;;;;;;;;;;5052816;28;20052;-71
2022/02/28 10:38:03;;;;;;;4.28;1.80;;;;;;;;;;5051049;28;20049;-71
2022/02/28 10:40:32;;;;;;;4.50;1.83;;;;;;;;;;5052627;28;20082;-69
2022/02/28 10:42:59;;;;;;;3.20;1.60;;;;;;;;;;5051385;28;20051;-69
2022/02/28 10:45:27;;;;;;;3.50;1.42;;;;;;;;;;5052345;28;20412;-72
2022/02/28 10:47:55;;;;;;;2.65;1.70;;;;;;;;;;5052239;28;20044;-69
2022/02/28 10:50:39;;;;;;;2.38;1.50;;;;;;;;;;5052450;28;20037;-72
2022/02/28 10:53:13;;;;;;;4.70;2.30;;;;;;;;;;5052281;28;20416;-69
2022/02/28 10:55:42;;;;;;;5.93;2.30;;;;;;;;;;5052297;28;20048;-71
2022/02/28 10:58:10;;;;;;;4.15;2.33;;;;;;;;;;5050913;28;20037;-69
2022/02/28 11:00:56;;;;;;;3.80;2.05;;;;;;;;;;5051958;28;20051;-69
2022/02/28 11:03:43;;;;;;;5.50;2.10;;;;;;;;;;5052274;28;20106;-69
2022/02/28 11:06:13;;;;;;;6.70;2.10;;;;;;;;;;5050950;28;20045;-69
2022/02/28 11:08:44;;;;;;;8.20;2.90;;;;;;;;;;5051715;28;20099;-69
2022/02/28 11:11:14;;;;;;;6.93;2.72;;;;;;;;;;5050454;28;20044;-68
2022/02/28 11:13:44;;;;;;;6.35;2.28;;;;;;;;;;5051895;28;20468;-71
2022/02/28 11:16:15;;;;;;;3.83;2.10;;;;;;;;;;5045504;28;20044;-71
2022/02/28 11:18:44;;;;;;;4.03;2.40;;;;;;;;;;5032037;28;20047;-71
2022/02/28 11:21:14;;;;;;;5.65;2.30;;;;;;;;;;5030506;28;20038;-69
2022/02/28 11:23:46;;;;;;;2.67;2.10;;;;;;;;;;5031406;28;20059;-71
2022/02/28 11:26:14;;;;;;;5.35;2.50;;;;;;;;;;5014475;28;20053;-71
2022/02/28 11:28:42;;;;;;;3.72;2.38;;;;;;;;;;5030354;28;20136;-71
2022/02/28 11:31:17;;;;;;;3.80;2.20;;;;;;;;;;5030544;28;20050;-69
2022/02/28 11:33:51;;;;;;;3.33;2.30;;;;;;;;;;5030293;28;20087;-71
2022/02/28 11:36:21;;;;;;;4.90;2.30;;;;;;;;;;5030238;28;20092;-69
2022/02/28 11:38:48;;;;;;;3.33;2.30;;;;;;;;;;5032089;28;20492;-71
2022/02/28 11:41:18;;;;;;;9.43;2.20;;;;;;;;;;5033464;28;20060;-71
2022/02/28 11:43:47;;;;;;;6.00;2.20;;;;;;;;;;5051312;28;20033;-71
2022/02/28 11:46:19;;;;;;;3.80;2.28;;;;;;;;;;5054185;28;20079;-68
2022/02/28 11:48:53;;;;;;;9.60;2.45;;;;;;;;;;5052814;28;20127;-72
2022/02/28 11:51:23;;;;;;;2.50;2.30;;;;;;;;;;5055437;28;20041;-69
2022/02/28 11:54:14;;;;;;;3.45;2.20;;;;;;;;;;5053905;28;20371;-69
2022/02/28 11:56:41;;;;;;;5.63;2.20;;;;;;;;;;5051918;28;20041;-71
2022/02/28 11:59:19;;;;;;;5.57;2.33;;;;;;;;;;5055153;28;20040;-68
2022/02/28 12:01:54;;;;;;;5.43;2.15;;;;;;;;;;5054566;28;20037;-69
2022/02/28 12:04:31;;;;;;;5.00;2.20;;;;;;;;;;5053648;28;20037;-71
2022/02/28 12:07:03;;;;;;;3.72;2.25;;;;;;;;;;5053592;28;20045;-71
2022/02/28 12:09:37;;;;;;;4.53;2.35;;;;;;;;;;5052175;28;20044;-69
2022/02/28 12:12:13;;;;;;;4.40;2.20;;;;;;;;;;5054824;28;20037;-69
2022/02/28 12:17:33;;;;;;;3.85;2.15;;;;;;;;;;5054270;28;20045;-69
2022/02/28 12:20:19;;;;;;;2.90;2.03;;;;;;;;;;5053591;28;20036;-72
2022/02/28 12:22:52;;;;;;;3.42;2.00;;;;;;;;;;5053882;28;20044;-69
2022/02/28 12:25:33;;;;;;;4.90;1.90;;;;;;;;;;5054821;28;20151;-69
2022/02/28 12:28:17;;;;;;;3.45;2.20;;;;;;;;;;5053899;28;20052;-69
2022/02/28 12:30:47;;;;;;;4.15;2.05;;;;;;;;;;5053284;28;20416;-68
2022/02/28 12:33:17;;;;;;;3.47;1.88;;;;;;;;;;5053158;28;20047;-71
2022/02/28 12:35:58;;;;;;;4.35;2.08;;;;;;;;;;5034754;28;20096;-69
2022/02/28 12:38:31;;;;;;;4.32;2.40;;;;;;;;;;5033933;28;20033;-72
2022/02/28 12:41:00;;;;;;;2.55;1.67;;;;;;;;;;5053719;28;20052;-69
2022/02/28 12:43:29;;;;;;;4.32;2.20;;;;;;;;;;5054260;28;20068;-70
2022/02/28 12:45:57;;;;;;;3.42;1.80;;;;;;;;;;5053403;28;20037;-71
2022/02/28 12:48:26;;;;;;;4.47;2.17;;;;;;;;;;5054407;28;20043;-69
2022/02/28 12:50:54;;;;;;;5.80;2.30;;;;;;;;;;5054123;28;20137;-69
2022/02/28 12:53:24;;;;;;;3.28;2.10;;;;;;;;;;5053861;28;20044;-69
2022/02/28 12:55:59;;;;;;;2.70;2.00;;;;;;;;;;5054798;28;20033;-70
2022/02/28 12:58:29;;;;;;;3.42;2.53;;;;;;;;;;5053401;28;20041;-69
2022/02/28 13:01:11;;;;;;;4.38;2.08;;;;;;;;;;5053893;28;20033;-72
2022/02/28 13:03:39;;;;;;;4.03;2.07;;;;;;;;;;5053895;28;20102;-71
2022/02/28 13:06:08;;;;;;;3.35;2.60;;;;;;;;;;5052940;28;20472;-69
2022/02/28 13:08:39;;;;;;;6.45;2.10;;;;;;;;;;5051248;28;20060;-69
2022/02/28 13:11:11;;;;;;;3.85;1.70;;;;;;;;;;5052616;28;20140;-72
2022/02/28 13:13:39;;;;;;;2.15;1.63;;;;;;;;;;5041443;28;20034;-72
2022/02/28 13:16:06;;;;;;;3.53;1.88;;;;;;;;;;5052412;28;20064;-72
2022/02/28 13:18:34;;;;;;;3.55;1.88;;;;;;;;;;5052108;28;20412;-70
2022/02/28 13:21:02;;;;;;;4.40;2.42;;;;;;;;;;5033925;28;20040;-70
2022/02/28 13:23:49;;;;;;;4.47;1.88;;;;;;;;;;5041606;28;20148;-73
2022/02/28 13:26:16;;;;;;;3.88;1.90;;;;;;;;;;5044613;28;20039;-71
2022/02/28 13:28:45;;;;;;;7.57;2.20;;;;;;;;;;5042770;28;20068;-73
2022/02/28 13:31:14;;;;;;;4.13;1.63;;;;;;;;;;5039476;28;20415;-73
2022/02/28 13:33:44;;;;;;;3.88;2.10;;;;;;;;;;5043325;28;20041;-73
2022/02/28 13:36:12;;;;;;;3.78;1.75;;;;;;;;;;5041875;28;20408;-73
2022/02/28 13:38:40;;;;;;;5.90;2.33;;;;;;;;;;5043480;28;20073;-70
2022/02/28 13:41:10;;;;;;;2.00;1.80;;;;;;;;;;5045203;28;20082;-73
2022/02/28 13:43:42;;;;;;;3.05;2.10;;;;;;;;;;5045556;28;20056;-73
2022/02/28 13:46:13;;;;;;;3.53;2.42;;;;;;;;;;5046464;28;20135;-67
2022/02/28 13:48:41;;;;;;;2.20;1.80;;;;;;;;;;5043913;28;20144;-72
2022/02/28 13:51:10;;;;;;;5.18;2.25;;;;;;;;;;5050129;28;20116;-68
2022/02/28 13:53:42;;;;;;;5.88;2.95;;;;;;;;;;5065508;28;20045;-74
2022/02/28 13:56:30;;;;;;;4.55;2.17;;;;;;;;;;5047067;28;20379;-70
2022/02/28 13:59:08;;;;;;;3.05;2.08;;;;;;;;;;5051884;28;20068;-72
2022/02/28 14:01:36;;;;;;;5.28;2.00;;;;;;;;;;5029818;28;20095;-71
2022/02/28 14:04:32;;;;;;;5.40;2.35;;;;;;;;;;5049722;28;20057;-70
2022/02/28 14:07:02;;;;;;;3.40;2.42;;;;;;;;;;5040676;28;20053;-73
2022/02/28 14:09:35;;;;;;;4.57;2.00;;;;;;;;;;5052505;28;20053;-70
2022/02/28 14:12:04;;;;;;;5.78;2.20;;;;;;;;;;5043434;28;20037;-69
2022/02/28 14:14:32;;;;;;;6.13;2.22;;;;;;;;;;5046382;28;20135;-71
2022/02/28 14:17:04;;;;;;;5.45;2.30;;;;;;;;;;5043665;28;20128;-72
2022/02/28 14:19:32;;;;;;;4.83;2.40;;;;;;;;;;5046647;28;20040;-72
2022/02/28 14:22:09;;;;;;;5.47;2.60;;;;;;;;;;5049106;28;20049;-69
2022/02/28 14:24:54;;;;;;;5.00;2.50;;;;;;;;;;5048536;28;20045;-72
2022/02/28 14:27:57;;;;;;;4.10;2.30;;;;;;;;;;5049820;28;20048;-68
2022/02/28 14:31:04;;;;;;;6.93;2.45;;;;;;;;;;5050423;28;20065;-69
2022/02/28 14:33:33;;;;;;;3.05;2.22;;;;;;;;;;5044435;28;20123;-72
2022/02/28 14:36:00;;;;;;;4.85;2.30;;;;;;;;;;5043855;28;20397;-73
2022/02/28 14:38:27;;;;;;;4.15;3.08;;;;;;;;;;5048946;28;20033;-70
2022/02/28 14:41:03;;;;;;;5.53;2.10;;;;;;;;;;5047618;28;20063;-69
2022/02/28 14:43:30;;;;;;;5.22;1.95;;;;;;;;;;5051872;28;20041;-72
2022/02/28 14:45:58;;;;;;;5.60;2.30;;;;;;;;;;5051330;28;20136;-73
2022/02/28 14:48:26;;;;;;;4.00;2.25;;;;;;;;;;5029918;28;20128;-72
2022/02/28 14:50:55;;;;;;;2.15;1.88;;;;;;;;;;5048874;28;20036;-71
2022/02/28 14:53:22;;;;;;;2.47;1.77;;;;;;;;;;5052817;28;20044;-73
2022/02/28 14:55:50;;;;;;;3.67;2.42;;;;;;;;;;5052406;28;20037;-73
2022/02/28 14:58:17;;;;;;;4.15;2.17;;;;;;;;;;5050966;28;20048;-73
2022/02/28 15:00:46;;;;;;;5.10;2.38;;;;;;;;;;5050406;28;20411;-73
2022/02/28 15:03:14;;;;;;;3.33;2.10;;;;;;;;;;5050790;28;20546;-74
2022/02/28 15:05:41;;;;;;;3.47;2.22;;;;;;;;;;5051098;28;20048;-69
2022/02/28 15:08:09;;;;;;;3.65;2.10;;;;;;;;;;5052080;28;20052;-70